createdAt,value
2023-04-18T00:00:11.631Z,1019.10
2023-04-18T00:01:11.602Z,1019.12
2023-04-18T00:02:11.689Z,1019.08
2023-04-18T00:03:11.807Z,1019.10
2023-04-18T00:04:11.703Z,1019.11
2023-04-18T00:05:11.602Z,1019.10
2023-04-18T00:06:11.552Z,1019.13
2023-04-18T00:07:11.559Z,1019.12
2023-04-18T00:08:11.529Z,1019.11
2023-04-18T00:09:11.571Z,1019.13
2023-04-18T00:10:11.506Z,1019.12
2023-04-18T00:11:11.502Z,1019.10
2023-04-18T00:12:11.507Z,1019.08
2023-04-18T00:13:11.477Z,1019.05
2023-04-18T00:14:11.661Z,1019.09
2023-04-18T00:15:11.455Z,1019.07
2023-04-18T00:16:11.441Z,1019.03
2023-04-18T00:17:11.486Z,1019.04
2023-04-18T00:18:11.415Z,1019.05
2023-04-18T00:19:11.408Z,1019.03
2023-04-18T00:20:11.418Z,1019.01
2023-04-18T00:21:11.384Z,1019.06
2023-04-18T00:22:11.406Z,1019.07
2023-04-18T00:23:13.311Z,1019.04
2023-04-18T00:24:11.422Z,1019.05
2023-04-18T00:25:11.328Z,1019.04
2023-04-18T00:26:11.361Z,1019.09
2023-04-18T00:27:11.383Z,1019.02
2023-04-18T00:28:11.306Z,1019.06
2023-04-18T00:29:11.294Z,1019.06
2023-04-18T00:30:11.293Z,1019.10
2023-04-18T00:31:11.322Z,1019.06
2023-04-18T00:32:11.290Z,1019.06
2023-04-18T00:33:11.249Z,1019.10
2023-04-18T00:34:11.330Z,1019.03
2023-04-18T00:35:11.216Z,1018.99
2023-04-18T00:36:11.218Z,1019.03
2023-04-18T00:37:11.215Z,1019.03
2023-04-18T00:38:11.202Z,1019.05
2023-04-18T00:39:11.178Z,1019.01
2023-04-18T00:40:11.165Z,1018.96
2023-04-18T00:41:11.154Z,1019.01
2023-04-18T00:42:11.165Z,1019.01
2023-04-18T00:43:11.149Z,1019.00
2023-04-18T00:44:11.289Z,1018.99
2023-04-18T00:45:11.115Z,1019.00
2023-04-18T00:46:11.194Z,1018.94
2023-04-18T00:47:11.114Z,1018.96
2023-04-18T00:48:11.100Z,1018.94
2023-04-18T00:49:11.077Z,1018.94
2023-04-18T00:50:11.072Z,1018.93
2023-04-18T00:51:11.049Z,1018.92
2023-04-18T00:52:11.060Z,1018.88
2023-04-18T00:53:11.046Z,1018.93
2023-04-18T00:54:11.104Z,1018.90
2023-04-18T00:55:10.997Z,1018.90
2023-04-18T00:56:10.998Z,1018.87
2023-04-18T00:57:10.998Z,1018.89
2023-04-18T00:58:10.970Z,1018.91
2023-04-18T00:59:10.982Z,1018.89
2023-04-18T01:00:10.957Z,1018.96
2023-04-18T01:01:10.969Z,1018.91
2023-04-18T01:02:10.975Z,1018.92
2023-04-18T01:03:11.206Z,1018.93
2023-04-18T01:04:10.978Z,1018.92
2023-04-18T01:05:10.889Z,1018.89
2023-04-18T01:06:10.879Z,1018.85
2023-04-18T01:07:10.891Z,1018.91
2023-04-18T01:08:10.876Z,1018.86
2023-04-18T01:09:10.856Z,1018.88
2023-04-18T01:10:10.840Z,1018.90
2023-04-18T01:11:10.823Z,1018.88
2023-04-18T01:12:10.842Z,1018.91
2023-04-18T01:13:10.801Z,1018.87
2023-04-18T01:14:11.048Z,1018.90
2023-04-18T01:15:10.787Z,1018.91
2023-04-18T01:16:10.813Z,1018.92
2023-04-18T01:17:10.779Z,1018.94
2023-04-18T01:18:10.754Z,1018.89
2023-04-18T01:19:10.752Z,1018.89
2023-04-18T01:20:10.742Z,1018.85
2023-04-18T01:21:10.712Z,1018.86
2023-04-18T01:22:10.729Z,1018.85
2023-04-18T01:23:10.703Z,1018.88
2023-04-18T01:24:10.791Z,1018.83
2023-04-18T01:25:10.697Z,1018.85
2023-04-18T01:26:10.660Z,1018.85
2023-04-18T01:27:10.674Z,1018.88
2023-04-18T01:28:10.641Z,1018.82
2023-04-18T01:29:10.641Z,1018.88
2023-04-18T01:30:10.625Z,1018.87
2023-04-18T01:31:10.639Z,1018.85
2023-04-18T01:32:10.623Z,1018.81
2023-04-18T01:33:10.595Z,1018.78
2023-04-18T01:34:10.695Z,1018.80
2023-04-18T01:35:10.575Z,1018.82
2023-04-18T01:36:10.551Z,1018.83
2023-04-18T01:37:10.567Z,1018.82
2023-04-18T01:38:10.545Z,1018.82
2023-04-18T01:39:10.524Z,1018.84
2023-04-18T01:40:10.518Z,1018.81
2023-04-18T01:41:10.507Z,1018.84
2023-04-18T01:42:10.512Z,1018.78
2023-04-18T01:43:10.524Z,1018.87
2023-04-18T01:44:10.468Z,1018.82
2023-04-18T01:45:10.466Z,1018.81
2023-04-18T01:46:10.471Z,1018.82
2023-04-18T01:47:10.458Z,1018.82
2023-04-18T01:48:10.416Z,1018.77
2023-04-18T01:49:10.417Z,1018.78
2023-04-18T01:50:10.402Z,1018.73
2023-04-18T01:51:10.402Z,1018.70
2023-04-18T01:52:10.410Z,1018.74
2023-04-18T01:53:10.372Z,1018.76
2023-04-18T01:54:10.364Z,1018.75
2023-04-18T01:55:10.347Z,1018.72
2023-04-18T01:56:10.330Z,1018.72
2023-04-18T01:57:10.346Z,1018.77
2023-04-18T01:58:10.308Z,1018.73
2023-04-18T01:59:10.302Z,1018.76
2023-04-18T02:00:10.287Z,1018.73
2023-04-18T02:01:10.363Z,1018.68
2023-04-18T02:02:10.316Z,1018.68
2023-04-18T02:03:10.515Z,1018.69
2023-04-18T02:04:10.288Z,1018.66
2023-04-18T02:05:10.245Z,1018.65
2023-04-18T02:06:10.213Z,1018.67
2023-04-18T02:07:10.235Z,1018.66
2023-04-18T02:08:10.202Z,1018.69
2023-04-18T02:09:10.191Z,1018.63
2023-04-18T02:10:10.201Z,1018.62
2023-04-18T02:11:10.170Z,1018.64
2023-04-18T02:12:10.183Z,1018.61
2023-04-18T02:13:10.147Z,1018.64
2023-04-18T02:14:10.133Z,1018.64
2023-04-18T02:15:10.132Z,1018.66
2023-04-18T02:16:10.129Z,1018.64
2023-04-18T02:17:10.131Z,1018.64
2023-04-18T02:18:10.089Z,1018.62
2023-04-18T02:19:10.079Z,1018.61
2023-04-18T02:20:10.069Z,1018.64
2023-04-18T02:21:10.057Z,1018.64
2023-04-18T02:22:10.075Z,1018.61
2023-04-18T02:23:10.073Z,1018.61
2023-04-18T02:24:10.022Z,1018.62
2023-04-18T02:25:10.021Z,1018.57
2023-04-18T02:26:10.010Z,1018.56
2023-04-18T02:27:10.021Z,1018.57
2023-04-18T02:28:09.986Z,1018.58
2023-04-18T02:29:09.977Z,1018.61
2023-04-18T02:30:09.964Z,1018.60
2023-04-18T02:31:09.952Z,1018.62
2023-04-18T02:32:09.997Z,1018.64
2023-04-18T02:33:09.935Z,1018.61
2023-04-18T02:34:09.908Z,1018.61
2023-04-18T02:35:09.904Z,1018.64
2023-04-18T02:36:09.888Z,1018.63
2023-04-18T02:37:09.916Z,1018.59
2023-04-18T02:38:09.864Z,1018.62
2023-04-18T02:39:09.860Z,1018.56
2023-04-18T02:40:09.848Z,1018.60
2023-04-18T02:41:09.839Z,1018.63
2023-04-18T02:42:09.844Z,1018.63
2023-04-18T02:43:09.826Z,1018.62
2023-04-18T02:44:09.805Z,1018.63
2023-04-18T02:45:09.800Z,1018.64
2023-04-18T02:46:09.798Z,1018.61
2023-04-18T02:47:09.805Z,1018.58
2023-04-18T02:48:09.804Z,1018.64
2023-04-18T02:49:09.750Z,1018.64
2023-04-18T02:50:09.731Z,1018.64
2023-04-18T02:51:09.731Z,1018.62
2023-04-18T02:52:09.735Z,1018.62
2023-04-18T02:53:09.726Z,1018.63
2023-04-18T02:54:09.687Z,1018.65
2023-04-18T02:55:09.684Z,1018.65
2023-04-18T02:56:09.697Z,1018.67
2023-04-18T02:57:09.681Z,1018.67
2023-04-18T02:58:09.642Z,1018.65
2023-04-18T02:59:09.668Z,1018.69
2023-04-18T03:00:09.625Z,1018.64
2023-04-18T03:01:09.667Z,1018.66
2023-04-18T03:02:09.664Z,1018.71
2023-04-18T03:03:09.630Z,1018.72
2023-04-18T03:04:09.581Z,1018.68
2023-04-18T03:05:09.634Z,1018.69
2023-04-18T03:06:09.556Z,1018.67
2023-04-18T03:07:09.582Z,1018.66
2023-04-18T03:08:09.531Z,1018.66
2023-04-18T03:09:09.532Z,1018.68
2023-04-18T03:10:09.516Z,1018.65
2023-04-18T03:11:09.503Z,1018.63
2023-04-18T03:12:09.507Z,1018.64
2023-04-18T03:13:09.486Z,1018.65
2023-04-18T03:14:09.464Z,1018.61
2023-04-18T03:15:09.469Z,1018.65
2023-04-18T03:16:09.461Z,1018.65
2023-04-18T03:17:09.453Z,1018.63
2023-04-18T03:18:09.460Z,1018.60
2023-04-18T03:19:09.421Z,1018.56
2023-04-18T03:20:09.397Z,1018.59
2023-04-18T03:21:09.395Z,1018.60
2023-04-18T03:22:09.399Z,1018.64
2023-04-18T03:23:09.376Z,1018.69
2023-04-18T03:24:11.965Z,1018.66
2023-04-18T03:25:09.347Z,1018.63
2023-04-18T03:26:09.333Z,1018.66
2023-04-18T03:27:09.361Z,1018.70
2023-04-18T03:28:09.312Z,1018.62
2023-04-18T03:29:09.305Z,1018.65
2023-04-18T03:30:09.292Z,1018.63
2023-04-18T03:31:09.304Z,1018.65
2023-04-18T03:32:09.280Z,1018.67
2023-04-18T03:33:09.261Z,1018.68
2023-04-18T03:34:09.243Z,1018.67
2023-04-18T03:35:09.236Z,1018.65
2023-04-18T03:36:09.220Z,1018.67
2023-04-18T03:37:09.233Z,1018.67
2023-04-18T03:38:09.222Z,1018.64
2023-04-18T03:39:09.190Z,1018.66
2023-04-18T03:40:09.180Z,1018.67
2023-04-18T03:41:09.179Z,1018.73
2023-04-18T03:42:09.192Z,1018.69
2023-04-18T03:43:09.150Z,1018.70
2023-04-18T03:44:09.136Z,1018.70
2023-04-18T03:45:09.138Z,1018.76
2023-04-18T03:46:09.126Z,1018.74
2023-04-18T03:47:09.145Z,1018.73
2023-04-18T03:48:09.097Z,1018.75
2023-04-18T03:49:09.084Z,1018.77
2023-04-18T03:50:09.068Z,1018.77
2023-04-18T03:51:09.063Z,1018.73
2023-04-18T03:52:09.084Z,1018.74
2023-04-18T03:53:09.039Z,1018.81
2023-04-18T03:54:09.022Z,1018.82
2023-04-18T03:55:09.027Z,1018.81
2023-04-18T03:56:09.004Z,1018.83
2023-04-18T03:57:09.012Z,1018.83
2023-04-18T03:58:08.986Z,1018.80
2023-04-18T03:59:08.984Z,1018.86
2023-04-18T04:00:08.968Z,1018.81
2023-04-18T04:01:08.961Z,1018.83
2023-04-18T04:02:09.000Z,1018.83
2023-04-18T04:03:09.078Z,1018.81
2023-04-18T04:04:08.974Z,1018.84
2023-04-18T04:05:08.992Z,1018.88
2023-04-18T04:06:08.900Z,1018.87
2023-04-18T04:07:08.914Z,1018.86
2023-04-18T04:08:08.868Z,1018.84
2023-04-18T04:09:08.865Z,1018.82
2023-04-18T04:10:08.846Z,1018.84
2023-04-18T04:11:08.883Z,1018.86
2023-04-18T04:12:08.844Z,1018.83
2023-04-18T04:13:08.820Z,1018.86
2023-04-18T04:14:08.808Z,1018.84
2023-04-18T04:15:08.794Z,1018.82
2023-04-18T04:16:08.888Z,1018.87
2023-04-18T04:17:08.794Z,1018.85
2023-04-18T04:18:09.100Z,1018.87
2023-04-18T04:19:08.765Z,1018.85
2023-04-18T04:20:08.754Z,1018.89
2023-04-18T04:21:08.753Z,1018.90
2023-04-18T04:22:08.751Z,1018.88
2023-04-18T04:23:08.716Z,1018.97
2023-04-18T04:24:08.698Z,1018.93
2023-04-18T04:25:08.696Z,1018.91
2023-04-18T04:26:08.692Z,1018.94
2023-04-18T04:27:08.690Z,1018.95
2023-04-18T04:28:08.662Z,1018.92
2023-04-18T04:29:08.646Z,1018.92
2023-04-18T04:30:08.625Z,1018.93
2023-04-18T04:31:08.621Z,1018.95
2023-04-18T04:32:08.669Z,1018.96
2023-04-18T04:33:08.608Z,1018.93
2023-04-18T04:34:08.591Z,1018.98
2023-04-18T04:35:08.588Z,1018.96
2023-04-18T04:36:08.597Z,1018.95
2023-04-18T04:37:08.584Z,1018.96
2023-04-18T04:38:08.548Z,1018.98
2023-04-18T04:39:08.535Z,1019.00
2023-04-18T04:40:08.521Z,1019.01
2023-04-18T04:41:08.522Z,1018.97
2023-04-18T04:42:08.543Z,1019.02
2023-04-18T04:43:08.574Z,1019.07
2023-04-18T04:44:08.471Z,1019.01
2023-04-18T04:45:08.456Z,1018.98
2023-04-18T04:46:08.491Z,1019.02
2023-04-18T04:47:08.462Z,1019.05
2023-04-18T04:48:08.520Z,1019.04
2023-04-18T04:49:08.418Z,1019.07
2023-04-18T04:50:08.421Z,1019.07
2023-04-18T04:51:08.399Z,1019.12
2023-04-18T04:52:08.434Z,1019.07
2023-04-18T04:53:08.386Z,1019.05
2023-04-18T04:54:08.363Z,1019.09
2023-04-18T04:55:08.350Z,1019.07
2023-04-18T04:56:08.334Z,1019.08
2023-04-18T04:57:08.359Z,1019.09
2023-04-18T04:58:08.334Z,1019.08
2023-04-18T04:59:08.314Z,1019.13
2023-04-18T05:00:08.285Z,1019.14
2023-04-18T05:01:08.329Z,1019.17
2023-04-18T05:02:08.366Z,1019.14
2023-04-18T05:03:08.576Z,1019.15
2023-04-18T05:04:08.289Z,1019.12
2023-04-18T05:05:08.271Z,1019.16
2023-04-18T05:06:08.249Z,1019.17
2023-04-18T05:07:08.254Z,1019.20
2023-04-18T05:08:08.259Z,1019.16
2023-04-18T05:09:08.198Z,1019.18
2023-04-18T05:10:08.236Z,1019.21
2023-04-18T05:11:08.212Z,1019.18
2023-04-18T05:12:08.187Z,1019.20
2023-04-18T05:13:08.151Z,1019.21
2023-04-18T05:14:08.144Z,1019.23
2023-04-18T05:15:08.130Z,1019.21
2023-04-18T05:16:08.117Z,1019.21
2023-04-18T05:17:08.173Z,1019.20
2023-04-18T05:18:08.125Z,1019.17
2023-04-18T05:19:08.084Z,1019.16
2023-04-18T05:20:08.079Z,1019.25
2023-04-18T05:21:08.063Z,1019.19
2023-04-18T05:22:08.068Z,1019.27
2023-04-18T05:23:08.052Z,1019.25
2023-04-18T05:24:08.038Z,1019.23
2023-04-18T05:25:08.036Z,1019.25
2023-04-18T05:26:08.011Z,1019.21
2023-04-18T05:27:08.037Z,1019.24
2023-04-18T05:28:07.977Z,1019.23
2023-04-18T05:29:07.979Z,1019.26
2023-04-18T05:30:07.959Z,1019.23
2023-04-18T05:31:08.021Z,1019.25
2023-04-18T05:32:07.963Z,1019.19
2023-04-18T05:33:07.990Z,1019.25
2023-04-18T05:34:07.957Z,1019.27
2023-04-18T05:35:07.917Z,1019.25
2023-04-18T05:36:07.900Z,1019.27
2023-04-18T05:37:07.938Z,1019.27
2023-04-18T05:38:07.878Z,1019.29
2023-04-18T05:39:07.860Z,1019.25
2023-04-18T05:40:07.858Z,1019.31
2023-04-18T05:41:07.845Z,1019.29
2023-04-18T05:42:07.865Z,1019.26
2023-04-18T05:43:07.816Z,1019.33
2023-04-18T05:44:07.813Z,1019.32
2023-04-18T05:45:07.792Z,1019.33
2023-04-18T05:46:07.812Z,1019.37
2023-04-18T05:47:07.812Z,1019.35
2023-04-18T05:48:07.835Z,1019.36
2023-04-18T05:49:07.760Z,1019.35
2023-04-18T05:50:07.750Z,1019.34
2023-04-18T05:51:08.039Z,1019.37
2023-04-18T05:52:07.739Z,1019.39
2023-04-18T05:53:07.719Z,1019.37
2023-04-18T05:54:07.702Z,1019.38
2023-04-18T05:55:07.695Z,1019.43
2023-04-18T05:56:07.676Z,1019.36
2023-04-18T05:57:07.689Z,1019.41
2023-04-18T05:58:07.649Z,1019.42
2023-04-18T05:59:07.660Z,1019.45
2023-04-18T06:00:07.626Z,1019.47
2023-04-18T06:01:07.632Z,1019.51
2023-04-18T06:02:07.673Z,1019.50
2023-04-18T06:03:10.108Z,1019.56
2023-04-18T06:04:07.693Z,1019.60
2023-04-18T06:05:08.096Z,1019.62
2023-04-18T06:06:07.559Z,1019.56
2023-04-18T06:07:07.580Z,1019.67
2023-04-18T06:08:07.544Z,1019.61
2023-04-18T06:09:07.536Z,1019.64
2023-04-18T06:10:07.548Z,1019.63
2023-04-18T06:11:07.512Z,1019.67
2023-04-18T06:12:07.524Z,1019.67
2023-04-18T06:13:07.495Z,1019.63
2023-04-18T06:14:07.478Z,1019.64
2023-04-18T06:15:07.465Z,1019.64
2023-04-18T06:16:07.512Z,1019.68
2023-04-18T06:17:07.492Z,1019.67
2023-04-18T06:18:07.482Z,1019.68
2023-04-18T06:19:07.435Z,1019.64
2023-04-18T06:20:07.423Z,1019.68
2023-04-18T06:21:07.408Z,1019.74
2023-04-18T06:22:07.408Z,1019.75
2023-04-18T06:23:07.490Z,1019.73
2023-04-18T06:24:07.372Z,1019.77
2023-04-18T06:25:07.358Z,1019.72
2023-04-18T06:26:07.360Z,1019.70
2023-04-18T06:27:10.774Z,1019.79
2023-04-18T06:28:07.336Z,1019.81
2023-04-18T06:29:07.315Z,1019.72
2023-04-18T06:30:07.294Z,1019.78
2023-04-18T06:31:07.301Z,1019.76
2023-04-18T06:32:07.291Z,1019.69
2023-04-18T06:33:07.316Z,1019.76
2023-04-18T06:34:07.263Z,1019.75
2023-04-18T06:35:07.254Z,1019.78
2023-04-18T06:36:07.245Z,1019.72
2023-04-18T06:37:07.257Z,1019.79
2023-04-18T06:38:07.211Z,1019.80
2023-04-18T06:39:07.206Z,1019.82
2023-04-18T06:40:07.187Z,1019.77
2023-04-18T06:41:07.194Z,1019.86
2023-04-18T06:42:07.186Z,1019.82
2023-04-18T06:43:07.170Z,1019.79
2023-04-18T06:44:07.185Z,1019.83
2023-04-18T06:45:07.134Z,1019.81
2023-04-18T06:46:07.179Z,1019.84
2023-04-18T06:47:07.141Z,1019.85
2023-04-18T06:48:07.205Z,1019.89
2023-04-18T06:49:07.121Z,1019.86
2023-04-18T06:50:07.081Z,1019.85
2023-04-18T06:51:07.098Z,1019.85
2023-04-18T06:52:07.084Z,1019.84
2023-04-18T06:53:07.049Z,1019.88
2023-04-18T06:54:07.055Z,1019.92
2023-04-18T06:55:07.037Z,1019.90
2023-04-18T06:56:07.019Z,1019.92
2023-04-18T06:57:07.035Z,1019.95
2023-04-18T06:58:06.979Z,1019.90
2023-04-18T06:59:06.991Z,1020.00
2023-04-18T07:00:06.966Z,1019.95
2023-04-18T07:01:06.993Z,1019.97
2023-04-18T07:02:06.986Z,1019.98
2023-04-18T07:03:08.105Z,1019.99
2023-04-18T07:04:07.025Z,1019.99
2023-04-18T07:05:06.923Z,1019.96
2023-04-18T07:06:06.896Z,1020.11
2023-04-18T07:07:06.910Z,1019.99
2023-04-18T07:08:06.874Z,1019.96
2023-04-18T07:09:06.878Z,1019.99
2023-04-18T07:10:06.886Z,1020.04
2023-04-18T07:11:06.866Z,1020.03
2023-04-18T07:12:06.850Z,1019.99
2023-04-18T07:13:06.819Z,1020.06
2023-04-18T07:14:06.814Z,1020.05
2023-04-18T07:15:06.803Z,1020.08
2023-04-18T07:16:06.785Z,1020.10
2023-04-18T07:17:06.860Z,1020.02
2023-04-18T07:18:06.814Z,1020.09
2023-04-18T07:19:06.799Z,1020.01
2023-04-18T07:20:06.740Z,1020.02
2023-04-18T07:21:06.738Z,1019.99
2023-04-18T07:22:06.740Z,1019.99
2023-04-18T07:23:06.708Z,1020.01
2023-04-18T07:24:06.694Z,1020.01
2023-04-18T07:25:06.692Z,1019.99
2023-04-18T07:26:06.674Z,1020.01
2023-04-18T07:27:06.690Z,1019.98
2023-04-18T07:28:06.651Z,1019.99
2023-04-18T07:29:06.651Z,1020.04
2023-04-18T07:30:06.629Z,1020.07
2023-04-18T07:31:06.659Z,1020.02
2023-04-18T07:32:08.139Z,1020.02
2023-04-18T07:33:06.605Z,1020.05
2023-04-18T07:34:06.595Z,1020.05
2023-04-18T07:35:06.588Z,1020.08
2023-04-18T07:36:06.580Z,1020.10
2023-04-18T07:37:06.579Z,1020.09
2023-04-18T07:38:06.537Z,1020.06
2023-04-18T07:39:06.541Z,1020.11
2023-04-18T07:40:06.522Z,1020.09
2023-04-18T07:41:06.508Z,1020.08
2023-04-18T07:42:06.536Z,1020.08
2023-04-18T07:43:06.489Z,1020.09
2023-04-18T07:44:06.493Z,1020.09
2023-04-18T07:45:06.473Z,1020.12
2023-04-18T07:46:06.502Z,1020.15
2023-04-18T07:47:06.464Z,1020.16
2023-04-18T07:48:06.501Z,1020.18
2023-04-18T07:49:06.423Z,1020.16
2023-04-18T07:50:06.410Z,1020.19
2023-04-18T07:51:06.411Z,1020.21
2023-04-18T07:52:06.434Z,1020.26
2023-04-18T07:53:06.409Z,1020.20
2023-04-18T07:54:06.363Z,1020.18
2023-04-18T07:55:06.357Z,1020.26
2023-04-18T07:56:06.334Z,1020.21
2023-04-18T07:57:06.366Z,1020.25
2023-04-18T07:58:06.326Z,1020.24
2023-04-18T07:59:06.319Z,1020.26
2023-04-18T08:00:06.296Z,1020.25
2023-04-18T08:01:06.301Z,1020.30
2023-04-18T08:02:06.311Z,1020.34
2023-04-18T08:03:06.407Z,1020.37
2023-04-18T08:04:06.342Z,1020.40
2023-04-18T08:05:06.425Z,1020.36
2023-04-18T08:06:06.227Z,1020.33
2023-04-18T08:07:06.258Z,1020.23
2023-04-18T08:08:06.268Z,1020.28
2023-04-18T08:09:06.197Z,1020.32
2023-04-18T08:10:06.194Z,1020.39
2023-04-18T08:11:06.183Z,1020.36
2023-04-18T08:12:06.183Z,1020.31
2023-04-18T08:13:06.154Z,1020.33
2023-04-18T08:14:06.146Z,1020.34
2023-04-18T08:15:06.138Z,1020.36
2023-04-18T08:16:06.159Z,1020.31
2023-04-18T08:17:06.145Z,1020.34
2023-04-18T08:18:06.181Z,1020.31
2023-04-18T08:19:06.094Z,1020.28
2023-04-18T08:20:06.083Z,1020.39
2023-04-18T08:21:06.075Z,1020.34
2023-04-18T08:22:06.076Z,1020.36
2023-04-18T08:23:09.573Z,1020.37
2023-04-18T08:24:06.033Z,1020.42
2023-04-18T08:25:06.078Z,1020.38
2023-04-18T08:26:06.001Z,1020.45
2023-04-18T08:27:06.017Z,1020.39
2023-04-18T08:28:05.990Z,1020.41
2023-04-18T08:29:05.975Z,1020.41
2023-04-18T08:30:05.958Z,1020.38
2023-04-18T08:31:05.947Z,1020.40
2023-04-18T08:32:06.038Z,1020.41
2023-04-18T08:33:05.997Z,1020.40
2023-04-18T08:34:05.915Z,1020.43
2023-04-18T08:35:05.916Z,1020.41
2023-04-18T08:36:05.909Z,1020.43
2023-04-18T08:37:05.910Z,1020.32
2023-04-18T08:38:05.871Z,1020.41
2023-04-18T08:39:05.861Z,1020.44
2023-04-18T08:40:05.850Z,1020.40
2023-04-18T08:41:05.854Z,1020.50
2023-04-18T08:42:05.844Z,1020.39
2023-04-18T08:43:05.819Z,1020.39
2023-04-18T08:44:05.807Z,1020.42
2023-04-18T08:45:05.803Z,1020.41
2023-04-18T08:46:05.832Z,1020.40
2023-04-18T08:47:05.817Z,1020.44
2023-04-18T08:48:05.780Z,1020.36
2023-04-18T08:49:05.755Z,1020.36
2023-04-18T08:50:05.731Z,1020.43
2023-04-18T08:51:05.726Z,1020.44
2023-04-18T08:52:05.732Z,1020.39
2023-04-18T08:53:05.713Z,1020.41
2023-04-18T08:54:05.687Z,1020.40
2023-04-18T08:55:05.684Z,1020.37
2023-04-18T08:56:05.722Z,1020.39
2023-04-18T08:57:05.689Z,1020.42
2023-04-18T08:58:05.641Z,1020.40
2023-04-18T08:59:05.650Z,1020.33
2023-04-18T09:00:05.620Z,1020.41
2023-04-18T09:01:05.652Z,1020.38
2023-04-18T09:02:05.636Z,1020.40
2023-04-18T09:03:05.796Z,1020.34
2023-04-18T09:04:05.655Z,1020.37
2023-04-18T09:05:05.574Z,1020.37
2023-04-18T09:06:05.554Z,1020.37
2023-04-18T09:07:05.567Z,1020.41
2023-04-18T09:08:05.541Z,1020.42
2023-04-18T09:09:05.522Z,1020.38
2023-04-18T09:10:05.510Z,1020.41
2023-04-18T09:11:05.629Z,1020.40
2023-04-18T09:12:05.508Z,1020.38
2023-04-18T09:13:05.490Z,1020.39
2023-04-18T09:14:05.463Z,1020.42
2023-04-18T09:15:05.457Z,1020.43
2023-04-18T09:16:05.434Z,1020.34
2023-04-18T09:17:05.490Z,1020.32
2023-04-18T09:18:05.474Z,1020.31
2023-04-18T09:19:06.934Z,1020.40
2023-04-18T09:20:05.402Z,1020.37
2023-04-18T09:21:05.393Z,1020.43
2023-04-18T09:22:05.423Z,1020.45
2023-04-18T09:23:05.371Z,1020.39
2023-04-18T09:24:05.354Z,1020.36
2023-04-18T09:25:05.346Z,1020.37
2023-04-18T09:26:05.344Z,1020.44
2023-04-18T09:27:05.356Z,1020.38
2023-04-18T09:28:05.321Z,1020.44
2023-04-18T09:29:05.307Z,1020.40
2023-04-18T09:30:05.285Z,1020.31
2023-04-18T09:31:05.310Z,1020.33
2023-04-18T09:32:05.290Z,1020.37
2023-04-18T09:33:05.343Z,1020.32
2023-04-18T09:34:05.247Z,1020.36
2023-04-18T09:35:05.288Z,1020.33
2023-04-18T09:36:05.229Z,1020.37
2023-04-18T09:37:05.285Z,1020.36
2023-04-18T09:38:05.204Z,1020.36
2023-04-18T09:39:05.193Z,1020.35
2023-04-18T09:40:05.174Z,1020.41
2023-04-18T09:41:05.172Z,1020.42
2023-04-18T09:42:05.920Z,1020.39
2023-04-18T09:43:05.147Z,1020.46
2023-04-18T09:44:05.136Z,1020.36
2023-04-18T09:45:05.154Z,1020.39
2023-04-18T09:46:05.159Z,1020.42
2023-04-18T09:47:05.140Z,1020.39
2023-04-18T09:48:05.185Z,1020.44
2023-04-18T09:49:05.092Z,1020.39
2023-04-18T09:50:05.067Z,1020.35
2023-04-18T09:51:05.060Z,1020.36
2023-04-18T09:52:05.072Z,1020.30
2023-04-18T09:53:05.033Z,1020.27
2023-04-18T09:54:05.025Z,1020.28
2023-04-18T09:55:05.013Z,1020.34
2023-04-18T09:56:05.010Z,1020.30
2023-04-18T09:57:05.013Z,1020.23
2023-04-18T09:58:04.997Z,1020.21
2023-04-18T09:59:04.964Z,1020.24
2023-04-18T10:00:04.959Z,1020.26
2023-04-18T10:01:05.006Z,1020.30
2023-04-18T10:02:05.116Z,1020.29
2023-04-18T10:03:05.018Z,1020.29
2023-04-18T10:04:04.962Z,1020.21
2023-04-18T10:05:04.935Z,1020.19
2023-04-18T10:06:04.889Z,1020.23
2023-04-18T10:07:04.896Z,1020.26
2023-04-18T10:08:04.873Z,1020.23
2023-04-18T10:09:04.850Z,1020.23
2023-04-18T10:10:04.857Z,1020.28
2023-04-18T10:11:04.862Z,1020.27
2023-04-18T10:12:04.839Z,1020.28
2023-04-18T10:13:04.814Z,1020.25
2023-04-18T10:14:04.794Z,1020.25
2023-04-18T10:15:04.782Z,1020.19
2023-04-18T10:16:04.801Z,1020.26
2023-04-18T10:17:04.796Z,1020.25
2023-04-18T10:18:06.234Z,1020.26
2023-04-18T10:19:04.735Z,1020.22
2023-04-18T10:20:04.743Z,1020.24
2023-04-18T10:21:04.712Z,1020.20
2023-04-18T10:22:04.723Z,1020.26
2023-04-18T10:23:04.696Z,1020.23
2023-04-18T10:24:04.686Z,1020.21
2023-04-18T10:25:04.678Z,1020.25
2023-04-18T10:26:04.668Z,1020.24
2023-04-18T10:27:04.664Z,1020.23
2023-04-18T10:28:04.642Z,1020.19
2023-04-18T10:29:04.620Z,1020.18
2023-04-18T10:30:04.807Z,1020.24
2023-04-18T10:31:04.632Z,1020.21
2023-04-18T10:32:04.622Z,1020.14
2023-04-18T10:33:05.772Z,1020.16
2023-04-18T10:34:05.979Z,1020.17
2023-04-18T10:35:04.563Z,1020.16
2023-04-18T10:36:04.560Z,1020.11
2023-04-18T10:37:04.581Z,1020.11
2023-04-18T10:38:04.532Z,1020.17
2023-04-18T10:39:04.526Z,1020.13
2023-04-18T10:40:04.514Z,1020.15
2023-04-18T10:41:04.494Z,1020.16
2023-04-18T10:42:04.501Z,1020.11
2023-04-18T10:43:04.474Z,1020.16
2023-04-18T10:44:05.040Z,1020.13
2023-04-18T10:45:04.522Z,1020.21
2023-04-18T10:46:04.439Z,1020.13
2023-04-18T10:47:04.468Z,1020.13
2023-04-18T10:48:04.470Z,1020.16
2023-04-18T10:49:04.409Z,1020.15
2023-04-18T10:50:06.878Z,1020.15
2023-04-18T10:51:04.386Z,1020.13
2023-04-18T10:52:04.391Z,1020.12
2023-04-18T10:53:04.356Z,1020.11
2023-04-18T10:54:04.360Z,1020.10
2023-04-18T10:55:04.359Z,1020.16
2023-04-18T10:56:04.359Z,1020.13
2023-04-18T10:57:04.335Z,1020.06
2023-04-18T10:58:04.308Z,1020.10
2023-04-18T10:59:04.288Z,1020.14
2023-04-18T11:00:04.293Z,1020.07
2023-04-18T11:01:04.342Z,1020.07
2023-04-18T11:02:04.337Z,1020.07
2023-04-18T11:03:04.499Z,1020.13
2023-04-18T11:04:04.341Z,1020.14
2023-04-18T11:05:04.221Z,1020.11
2023-04-18T11:06:04.232Z,1020.14
2023-04-18T11:07:04.224Z,1020.16
2023-04-18T11:08:04.185Z,1020.19
2023-04-18T11:09:04.183Z,1020.06
2023-04-18T11:10:04.171Z,1020.13
2023-04-18T11:11:04.154Z,1020.17
2023-04-18T11:12:04.185Z,1020.09
2023-04-18T11:13:04.128Z,1020.13
2023-04-18T11:14:04.258Z,1020.11
2023-04-18T11:15:04.143Z,1020.13
2023-04-18T11:16:04.133Z,1020.10
2023-04-18T11:17:04.111Z,1020.05
2023-04-18T11:18:04.162Z,1020.06
2023-04-18T11:19:04.066Z,1020.04
2023-04-18T11:20:04.063Z,1020.07
2023-04-18T11:21:04.040Z,1020.09
2023-04-18T11:22:04.058Z,1020.03
2023-04-18T11:23:04.014Z,1019.99
2023-04-18T11:24:04.028Z,1019.96
2023-04-18T11:25:03.999Z,1019.98
2023-04-18T11:26:03.995Z,1020.03
2023-04-18T11:27:04.000Z,1019.95
2023-04-18T11:28:03.970Z,1019.95
2023-04-18T11:29:03.948Z,1019.95
2023-04-18T11:30:03.954Z,1019.96
2023-04-18T11:31:03.947Z,1019.87
2023-04-18T11:32:03.984Z,1019.91
2023-04-18T11:33:03.947Z,1019.94
2023-04-18T11:34:03.907Z,1019.91
2023-04-18T11:35:03.896Z,1019.98
2023-04-18T11:36:03.880Z,1019.93
2023-04-18T11:37:03.885Z,1019.81
2023-04-18T11:38:03.853Z,1019.91
2023-04-18T11:39:03.842Z,1019.92
2023-04-18T11:40:03.845Z,1019.89
2023-04-18T11:41:03.818Z,1019.91
2023-04-18T11:42:03.838Z,1019.89
2023-04-18T11:43:03.798Z,1019.93
2023-04-18T11:44:03.787Z,1019.90
2023-04-18T11:45:03.777Z,1019.92
2023-04-18T11:46:03.811Z,1019.90
2023-04-18T11:47:03.774Z,1019.89
2023-04-18T11:48:03.752Z,1019.88
2023-04-18T11:49:03.732Z,1019.92
2023-04-18T11:50:03.732Z,1019.96
2023-04-18T11:51:03.740Z,1019.91
2023-04-18T11:52:03.723Z,1019.97
2023-04-18T11:53:03.675Z,1019.95
2023-04-18T11:54:03.679Z,1019.93
2023-04-18T11:55:03.668Z,1019.89
2023-04-18T11:56:03.654Z,1019.92
2023-04-18T11:57:03.658Z,1019.91
2023-04-18T11:58:03.634Z,1019.91
2023-04-18T11:59:03.616Z,1019.89
2023-04-18T12:00:03.628Z,1019.88
2023-04-18T12:01:03.601Z,1019.86
2023-04-18T12:02:15.607Z,1019.92
2023-04-18T12:03:03.641Z,1019.86
2023-04-18T12:04:04.066Z,1019.87
2023-04-18T12:05:03.738Z,1019.88